F/V Frisby — FGLS — position and weather

sailwx.info

Track history (hours):
 
Tides and Currents Weather Stations Pressure Air Temp Water Temp Dewpoint Dewpoint Depression Visibility Wind Speed Wind Dir Waves Ship Positions

F/V Frisby

Last reported at 2017-Nov-12 19:51 UTC. Time now 2017-Nov-21 10:08 UTC.
Position N 45°56' W 001°27'.
Warning: this ship's position is 8 days out of date.

Length 16 m.

Type: Fishing. MMSI: 228117000.

Date/timePositionNaut miles runAvg speedWind from/ knotsBaromVisibWave heightAir tempDewpointWater temp
2017-Nov-12 19:51N 45°56' W 001°27'5 8.5
2017-Nov-12 19:13N 45°60' W 001°32'1 1.1
2017-Nov-12 17:54N 46°00' W 001°34'0 0.6
2017-Nov-12 17:28N 46°01' W 001°34'0 0.3
2017-Nov-12 16:56N 46°01' W 001°35'0 0.7
2017-Nov-12 16:30N 46°01' W 001°34'0 0.5
2017-Nov-12 15:52N 46°00' W 001°35'1 1.1
2017-Nov-12 15:19N 46°00' W 001°34'1 1.8
2017-Nov-12 14:55N 46°01' W 001°35'0 0.9
2017-Nov-12 14:30N 46°01' W 001°34'0 1.0
2017-Nov-12 13:59N 46°00' W 001°34'1 1.3
2017-Nov-12 13:28N 46°01' W 001°34'1 1.2
2017-Nov-12 12:55N 46°00' W 001°34'1 2.0
2017-Nov-12 12:29N 46°01' W 001°34'1 1.7
2017-Nov-12 12:00N 46°00' W 001°34'1 1.2
2017-Nov-12 11:30N 46°01' W 001°34'0 0.7
2017-Nov-12 11:00N 46°00' W 001°34'1 2.2
2017-Nov-12 10:30N 46°01' W 001°32'1 2.2
2017-Nov-12 10:00N 46°00' W 001°34'3 6.6
2017-Nov-12 09:29N 45°58' W 001°30'7 8.1
2017-Nov-12 08:39N 45°54' W 001°23'1 5.2
2017-Nov-12 08:23N 45°54' W 001°21'1 1.4
2017-Nov-12 07:33N 45°55' W 001°20'1 4.5
2017-Nov-12 07:25N 45°54' W 001°20'5 3.0
2017-Nov-12 05:56N 45°56' W 001°26'3 8.0
2017-Nov-12 05:30N 45°58' W 001°30'4 7.8
2017-Nov-12 05:00N 46°01' W 001°34'0 0.4
2017-Nov-12 04:29N 46°01' W 001°34'2 1.7
2017-Nov-12 03:35N 46°02' W 001°36'2 2.9
2017-Nov-12 02:55N 46°02' W 001°33'1 3.3
2017-Nov-12 02:29N 46°02' W 001°31'1 2.1
2017-Nov-12 02:01N 46°01' W 001°31'2 3.0
2017-Nov-12 01:28N 46°01' W 001°33'2 0.9
2017-Nov-11 23:10N 46°02' W 001°31'1 2.2
2017-Nov-11 22:50N 46°01' W 001°30'1 3.4
2017-Nov-11 22:30N 46°01' W 001°31'2 3.3
2017-Nov-11 21:59N 46°01' W 001°34'2 3.2
2017-Nov-11 21:25N 46°02' W 001°36'1 2.5
2017-Nov-11 20:57N 46°02' W 001°34'1 2.8
2017-Nov-11 20:30N 46°02' W 001°33'2 3.1
2017-Nov-11 20:00N 46°02' W 001°35'2 2.7
2017-Nov-11 19:13N 46°02' W 001°32'1 2.8
2017-Nov-11 18:59N 46°02' W 001°31'1 1.6
2017-Nov-11 18:30N 46°01' W 001°30'2 3.7
2017-Nov-11 17:58N 46°01' W 001°33'1 0.7
2017-Nov-11 16:13N 46°02' W 001°32'1 3.2
2017-Nov-11 16:00N 46°02' W 001°31'0 0.6
2017-Nov-11 15:31N 46°02' W 001°31'1 1.9
2017-Nov-11 15:00N 46°01' W 001°31'2 3.3
2017-Nov-11 14:31N 46°01' W 001°33'3 2.0
2017-Nov-11 13:11N 46°02' W 001°36'1 3.2
2017-Nov-11 13:00N 46°02' W 001°35'2 3.2
2017-Nov-11 12:26N 46°02' W 001°33'1 2.7
2017-Nov-11 11:56N 46°01' W 001°32'1 1.3
2017-Nov-11 11:30N 46°01' W 001°33'2 3.2
2017-Nov-11 11:00N 46°00' W 001°35'2 3.1
2017-Nov-11 10:24N 45°59' W 001°37'  
2017-Nov-08 06:53N 45°55' W 001°20'0 0.0
2017-Nov-08 06:26N 45°55' W 001°20'0 0.0
2017-Nov-08 05:54N 45°55' W 001°20'0 0.0
2017-Nov-08 05:30N 45°55' W 001°20'0 0.0
2017-Nov-08 04:59N 45°55' W 001°20'0 0.0
2017-Nov-08 04:30N 45°55' W 001°20'0 0.0
2017-Nov-08 03:55N 45°55' W 001°20'0 0.0
2017-Nov-07 20:41N 45°55' W 001°20'0 0.0
2017-Nov-07 20:30N 45°55' W 001°20'0 0.0
2017-Nov-07 19:59N 45°55' W 001°20'0 0.0
2017-Nov-07 18:32N 45°55' W 001°20'0 0.0
2017-Nov-07 18:30N 45°55' W 001°20'0 0.3
2017-Nov-07 18:00N 45°55' W 001°20'0 0.0
2017-Nov-07 17:27N 45°55' W 001°20'0 0.0
2017-Nov-07 16:40N 45°55' W 001°20'0 0.0
2017-Nov-07 16:26N 45°55' W 001°20'7 6.5
2017-Nov-07 15:20N 45°57' W 001°29'4 7.6
2017-Nov-07 14:49N 45°59' W 001°35'1 1.8
2017-Nov-07 14:17N 45°60' W 001°36'3 0.9
2017-Nov-07 10:46N 46°02' W 001°38'1 1.5
2017-Nov-07 10:23N 46°03' W 001°38'5 3.2
2017-Nov-07 08:48N 46°07' W 001°42'4 1.0
2017-Nov-07 05:15N 46°09' W 001°46'1 3.2
2017-Nov-07 05:00N 46°09' W 001°47'2 3.4
2017-Nov-07 04:29N 46°08' W 001°50'2 3.3
2017-Nov-07 04:01N 46°09' W 001°51'2 3.5
2017-Nov-07 03:30N 46°11' W 001°52'2 3.5
2017-Nov-07 03:01N 46°12' W 001°54'1 2.3
2017-Nov-07 02:30N 46°13' W 001°55'2 3.5
2017-Nov-07 01:58N 46°14' W 001°57'1 3.1
2017-Nov-07 01:30N 46°15' W 001°58'2 3.0
2017-Nov-07 01:00N 46°17' W 001°58'2 3.3
2017-Nov-07 00:29N 46°18' W 002°00'1 2.3
2017-Nov-06 23:56N 46°17' W 002°00'1 3.3
2017-Nov-06 23:30N 46°16' W 001°58'2 3.7
2017-Nov-06 23:00N 46°16' W 001°56'1 2.3
2017-Nov-06 22:30N 46°16' W 001°54'2 3.4
2017-Nov-06 21:56N 46°14' W 001°52'1 3.4
2017-Nov-06 21:30N 46°14' W 001°50'2 3.6
2017-Nov-06 20:59N 46°13' W 001°48'3 3.3
2017-Nov-06 20:07N 46°11' W 001°44'24 0.8
2017-Nov-05 16:04N 45°55' W 001°20'0 5.5
2017-Nov-05 16:00N 45°54' W 001°20'4 0.1
2017-Nov-03 14:27N 45°54' W 001°26'4 8.8
2017-Nov-03 14:00N 45°54' W 001°21'1 1.8
2017-Nov-03 13:24N 45°55' W 001°20'0 0.0
2017-Nov-03 13:00N 45°55' W 001°20'0 0.1
2017-Nov-03 12:24N 45°55' W 001°20'0 0.0
2017-Nov-03 12:00N 45°55' W 001°20'0 0.0
2017-Nov-03 11:23N 45°55' W 001°20'0 0.0
2017-Nov-03 10:54N 45°55' W 001°20'0 0.0
2017-Nov-03 10:30N 45°55' W 001°20'0 0.0
2017-Nov-03 09:48N 45°55' W 001°20'0 0.0
2017-Nov-03 09:31N 45°55' W 001°20'0 0.0
2017-Nov-03 09:00N 45°55' W 001°20'0 0.0
2017-Nov-03 08:30N 45°55' W 001°20'0 0.0
2017-Nov-03 05:28N 45°55' W 001°20'0 0.0
2017-Nov-03 04:57N 45°55' W 001°20'0 0.0
2017-Nov-03 03:45N 45°55' W 001°20'0 0.0
2017-Nov-03 02:26N 45°55' W 001°20'0 0.0
2017-Nov-03 01:50N 45°55' W 001°20'0 0.0
2017-Nov-03 01:29N 45°55' W 001°20'0 0.3
2017-Nov-03 00:59N 45°55' W 001°20'0 0.0
2017-Nov-03 00:29N 45°55' W 001°20'0 0.0
2017-Nov-03 00:00N 45°55' W 001°20'  
Track history (hours):
 
Tides and Currents Weather Stations Pressure Air Temp Water Temp Dewpoint Dewpoint Depression Visibility Wind Speed Wind Dir Waves Ship Positions

F/V Frisby

Last reported at 2017-Nov-12 19:51 UTC. Time now 2017-Nov-21 10:08 UTC.
Position N 45°56' W 001°27'.
Warning: this ship's position is 8 days out of date.

Length 16 m.

Type: Fishing. MMSI: 228117000.

Date/timePositionNaut miles runAvg speedWind from/ knotsBaromVisibWave heightAir tempDewpointWater temp
2017-Nov-12 19:51N 45°56' W 001°27'5 8.5
2017-Nov-12 19:13N 45°60' W 001°32'1 1.1
2017-Nov-12 17:54N 46°00' W 001°34'0 0.6
2017-Nov-12 17:28N 46°01' W 001°34'0 0.3
2017-Nov-12 16:56N 46°01' W 001°35'0 0.7
2017-Nov-12 16:30N 46°01' W 001°34'0 0.5
2017-Nov-12 15:52N 46°00' W 001°35'1 1.1
2017-Nov-12 15:19N 46°00' W 001°34'1 1.8
2017-Nov-12 14:55N 46°01' W 001°35'0 0.9
2017-Nov-12 14:30N 46°01' W 001°34'0 1.0
2017-Nov-12 13:59N 46°00' W 001°34'1 1.3
2017-Nov-12 13:28N 46°01' W 001°34'1 1.2
2017-Nov-12 12:55N 46°00' W 001°34'1 2.0
2017-Nov-12 12:29N 46°01' W 001°34'1 1.7
2017-Nov-12 12:00N 46°00' W 001°34'1 1.2
2017-Nov-12 11:30N 46°01' W 001°34'0 0.7
2017-Nov-12 11:00N 46°00' W 001°34'1 2.2
2017-Nov-12 10:30N 46°01' W 001°32'1 2.2
2017-Nov-12 10:00N 46°00' W 001°34'3 6.6
2017-Nov-12 09:29N 45°58' W 001°30'7 8.1
2017-Nov-12 08:39N 45°54' W 001°23'1 5.2
2017-Nov-12 08:23N 45°54' W 001°21'1 1.4
2017-Nov-12 07:33N 45°55' W 001°20'1 4.5
2017-Nov-12 07:25N 45°54' W 001°20'5 3.0
2017-Nov-12 05:56N 45°56' W 001°26'3 8.0
2017-Nov-12 05:30N 45°58' W 001°30'4 7.8
2017-Nov-12 05:00N 46°01' W 001°34'0 0.4
2017-Nov-12 04:29N 46°01' W 001°34'2 1.7
2017-Nov-12 03:35N 46°02' W 001°36'2 2.9
2017-Nov-12 02:55N 46°02' W 001°33'1 3.3
2017-Nov-12 02:29N 46°02' W 001°31'1 2.1
2017-Nov-12 02:01N 46°01' W 001°31'2 3.0
2017-Nov-12 01:28N 46°01' W 001°33'2 0.9
2017-Nov-11 23:10N 46°02' W 001°31'1 2.2
2017-Nov-11 22:50N 46°01' W 001°30'1 3.4
2017-Nov-11 22:30N 46°01' W 001°31'2 3.3
2017-Nov-11 21:59N 46°01' W 001°34'2 3.2
2017-Nov-11 21:25N 46°02' W 001°36'1 2.5
2017-Nov-11 20:57N 46°02' W 001°34'1 2.8
2017-Nov-11 20:30N 46°02' W 001°33'2 3.1
2017-Nov-11 20:00N 46°02' W 001°35'2 2.7
2017-Nov-11 19:13N 46°02' W 001°32'1 2.8
2017-Nov-11 18:59N 46°02' W 001°31'1 1.6
2017-Nov-11 18:30N 46°01' W 001°30'2 3.7
2017-Nov-11 17:58N 46°01' W 001°33'1 0.7
2017-Nov-11 16:13N 46°02' W 001°32'1 3.2
2017-Nov-11 16:00N 46°02' W 001°31'0 0.6
2017-Nov-11 15:31N 46°02' W 001°31'1 1.9
2017-Nov-11 15:00N 46°01' W 001°31'2 3.3
2017-Nov-11 14:31N 46°01' W 001°33'3 2.0
2017-Nov-11 13:11N 46°02' W 001°36'1 3.2
2017-Nov-11 13:00N 46°02' W 001°35'2 3.2
2017-Nov-11 12:26N 46°02' W 001°33'1 2.7
2017-Nov-11 11:56N 46°01' W 001°32'1 1.3
2017-Nov-11 11:30N 46°01' W 001°33'2 3.2
2017-Nov-11 11:00N 46°00' W 001°35'2 3.1
2017-Nov-11 10:24N 45°59' W 001°37'  
2017-Nov-08 06:53N 45°55' W 001°20'0 0.0
2017-Nov-08 06:26N 45°55' W 001°20'0 0.0
2017-Nov-08 05:54N 45°55' W 001°20'0 0.0
2017-Nov-08 05:30N 45°55' W 001°20'0 0.0
2017-Nov-08 04:59N 45°55' W 001°20'0 0.0
2017-Nov-08 04:30N 45°55' W 001°20'0 0.0
2017-Nov-08 03:55N 45°55' W 001°20'0 0.0
2017-Nov-07 20:41N 45°55' W 001°20'0 0.0
2017-Nov-07 20:30N 45°55' W 001°20'0 0.0
2017-Nov-07 19:59N 45°55' W 001°20'0 0.0
2017-Nov-07 18:32N 45°55' W 001°20'0 0.0
2017-Nov-07 18:30N 45°55' W 001°20'0 0.3
2017-Nov-07 18:00N 45°55' W 001°20'0 0.0
2017-Nov-07 17:27N 45°55' W 001°20'0 0.0
2017-Nov-07 16:40N 45°55' W 001°20'0 0.0
2017-Nov-07 16:26N 45°55' W 001°20'7 6.5
2017-Nov-07 15:20N 45°57' W 001°29'4 7.6
2017-Nov-07 14:49N 45°59' W 001°35'1 1.8
2017-Nov-07 14:17N 45°60' W 001°36'3 0.9
2017-Nov-07 10:46N 46°02' W 001°38'1 1.5
2017-Nov-07 10:23N 46°03' W 001°38'5 3.2
2017-Nov-07 08:48N 46°07' W 001°42'4 1.0
2017-Nov-07 05:15N 46°09' W 001°46'1 3.2
2017-Nov-07 05:00N 46°09' W 001°47'2 3.4
2017-Nov-07 04:29N 46°08' W 001°50'2 3.3
2017-Nov-07 04:01N 46°09' W 001°51'2 3.5
2017-Nov-07 03:30N 46°11' W 001°52'2 3.5
2017-Nov-07 03:01N 46°12' W 001°54'1 2.3
2017-Nov-07 02:30N 46°13' W 001°55'2 3.5
2017-Nov-07 01:58N 46°14' W 001°57'1 3.1
2017-Nov-07 01:30N 46°15' W 001°58'2 3.0
2017-Nov-07 01:00N 46°17' W 001°58'2 3.3
2017-Nov-07 00:29N 46°18' W 002°00'1 2.3
2017-Nov-06 23:56N 46°17' W 002°00'1 3.3
2017-Nov-06 23:30N 46°16' W 001°58'2 3.7
2017-Nov-06 23:00N 46°16' W 001°56'1 2.3
2017-Nov-06 22:30N 46°16' W 001°54'2 3.4
2017-Nov-06 21:56N 46°14' W 001°52'1 3.4
2017-Nov-06 21:30N 46°14' W 001°50'2 3.6
2017-Nov-06 20:59N 46°13' W 001°48'3 3.3
2017-Nov-06 20:07N 46°11' W 001°44'24 0.8
2017-Nov-05 16:04N 45°55' W 001°20'0 5.5
2017-Nov-05 16:00N 45°54' W 001°20'4 0.1
2017-Nov-03 14:27N 45°54' W 001°26'4 8.8
2017-Nov-03 14:00N 45°54' W 001°21'1 1.8
2017-Nov-03 13:24N 45°55' W 001°20'0 0.0
2017-Nov-03 13:00N 45°55' W 001°20'0 0.1
2017-Nov-03 12:24N 45°55' W 001°20'0 0.0
2017-Nov-03 12:00N 45°55' W 001°20'0 0.0
2017-Nov-03 11:23N 45°55' W 001°20'0 0.0
2017-Nov-03 10:54N 45°55' W 001°20'0 0.0
2017-Nov-03 10:30N 45°55' W 001°20'0 0.0
2017-Nov-03 09:48N 45°55' W 001°20'0 0.0
2017-Nov-03 09:31N 45°55' W 001°20'0 0.0
2017-Nov-03 09:00N 45°55' W 001°20'0 0.0
2017-Nov-03 08:30N 45°55' W 001°20'0 0.0
2017-Nov-03 05:28N 45°55' W 001°20'0 0.0
2017-Nov-03 04:57N 45°55' W 001°20'0 0.0
2017-Nov-03 03:45N 45°55' W 001°20'0 0.0
2017-Nov-03 02:26N 45°55' W 001°20'0 0.0
2017-Nov-03 01:50N 45°55' W 001°20'0 0.0
2017-Nov-03 01:29N 45°55' W 001°20'0 0.3
2017-Nov-03 00:59N 45°55' W 001°20'0 0.0
2017-Nov-03 00:29N 45°55' W 001°20'0 0.0
2017-Nov-03 00:00N 45°55' W 001°20'  

Dump ship's entire track history